Get Adobe Flash player

ERJ-145 skidded off the runway while landing

Video Details

Codename: Jocey
user image
Published on: Feb 4, 2010 Category: Airline Videos,   Incidents and Accidents,  

A Dniproavia Embraer ERJ-145, registration UR-DNE performing flight Z6-207 from Dnepropetrovsk (Ukraine) to Istanbul Ataturk (Turkey) with 44 people on board, overran runway 06 at 09:50 local (07:50Z) while landing following a VOR approach. The nose gear dug itsself into soft ground (making it appear to be collapsed) before the airplane came to a stop, all gear (including main gear) departed paved surface with the nose already pointing down the slope on soft ground. No injuries occured. This was the actual METAR: LTBA 230750Z 08004KT 9999 SCT035 BKN100 07/02 Q1007 NOSIG

Related Tags

ERJ-145 ERJ145 ukrainian skidded runway incident overrun ltba istambul

1 Comments

Write a Comment